Time;durP1;ratioP1;P1;durP2;ratioP2;P2;SDS_P1;SDS_P2;PMS_P1;PMS_P2;Temp;Humidity;BMP_temperature;BMP_pressure;BME280_temperature;BME280_humidity;BME280_pressure;Samples;Min_cycle;Max_cycle;Signal;HPM_P1;HPM_P2
2023/06/12 00:02:17;;;;;;;10.38;2.85;;;20.60;97.30;;;;;;5074313;28;20450;-61
2023/06/12 00:04:44;;;;;;;5.70;3.00;;;20.50;97.30;;;;;;5074333;28;20043;-60
2023/06/12 00:07:10;;;;;;;5.63;2.88;;;20.50;97.40;;;;;;5074438;28;20390;-60
2023/06/12 00:09:36;;;;;;;4.40;2.40;;;20.50;97.60;;;;;;5074002;28;20041;-61
2023/06/12 00:12:02;;;;;;;3.50;2.30;;;20.40;98.00;;;;;;5070701;28;20043;-61
2023/06/12 00:14:28;;;;;;;4.60;2.70;;;20.40;97.80;;;;;;5059723;28;20043;-61
2023/06/12 00:16:54;;;;;;;5.53;2.63;;;20.30;97.80;;;;;;5051285;28;20037;-61
2023/06/12 00:19:20;;;;;;;6.47;2.50;;;20.30;97.90;;;;;;5059388;28;20072;-60
2023/06/12 00:21:46;;;;;;;5.53;2.50;;;20.20;98.00;;;;;;5070601;28;20431;-60
2023/06/12 00:24:11;;;;;;;9.55;2.75;;;20.10;98.10;;;;;;5073148;28;20147;-61
2023/06/12 00:26:40;;;;;;;8.88;3.33;;;20.10;98.10;;;;;;5064220;28;20124;-61
2023/06/12 00:29:06;;;;;;;5.45;2.50;;;20.00;98.60;;;;;;5035998;28;20068;-60
2023/06/12 00:31:31;;;;;;;5.47;2.38;;;20.00;98.30;;;;;;5059316;28;20622;-61
2023/06/12 00:33:58;;;;;;;10.02;2.50;;;20.00;98.30;;;;;;5032420;28;20064;-61
2023/06/12 00:36:23;;;;;;;7.68;2.78;;;19.90;98.40;;;;;;5036774;28;20128;-60
2023/06/12 00:38:51;;;;;;;5.18;2.58;;;19.90;98.50;;;;;;5053814;28;20461;-60
2023/06/12 00:41:17;;;;;;;5.75;2.40;;;19.80;98.50;;;;;;5056945;28;20040;-60
2023/06/12 00:43:43;;;;;;;11.07;2.80;;;19.80;98.70;;;;;;5054135;28;20033;-61
2023/06/12 00:46:10;;;;;;;6.13;2.58;;;19.80;98.60;;;;;;5033433;28;20139;-61
2023/06/12 00:48:38;;;;;;;7.83;2.50;;;19.70;98.80;;;;;;5048059;28;20079;-60
2023/06/12 00:51:03;;;;;;;6.47;3.03;;;19.60;99.00;;;;;;5054968;28;20095;-61
2023/06/12 00:53:29;;;;;;;9.15;2.83;;;19.60;99.10;;;;;;5060645;28;20040;-61
2023/06/12 00:55:55;;;;;;;5.55;3.10;;;19.60;99.30;;;;;;5042356;28;20041;-60
2023/06/12 00:58:22;;;;;;;5.78;2.60;;;19.60;99.40;;;;;;5053557;28;20045;-60
2023/06/12 01:00:48;;;;;;;8.63;2.45;;;19.50;99.30;;;;;;5068952;28;20395;-60
2023/06/12 01:03:14;;;;;;;6.90;2.67;;;19.40;99.50;;;;;;5053493;28;20513;-59
2023/06/12 01:05:45;;;;;;;4.15;2.40;;;19.30;99.50;;;;;;5053322;28;20510;-60
2023/06/12 01:08:28;;;;;;;9.15;2.55;;;19.30;99.70;;;;;;5053363;28;20483;-60
2023/06/12 01:11:05;;;;;;;6.15;2.83;;;19.30;99.80;;;;;;5046542;28;20395;-60
2023/06/12 01:13:33;;;;;;;6.65;2.47;;;19.20;99.90;;;;;;5044242;28;20037;-60
2023/06/12 01:15:58;;;;;;;11.93;3.08;;;19.20;99.90;;;;;;5053213;28;20036;-60
2023/06/12 01:18:25;;;;;;;12.48;2.67;;;19.10;99.90;;;;;;5053180;28;20041;-60
2023/06/12 01:20:53;;;;;;;5.93;2.65;;;19.10;99.90;;;;;;5052730;28;20043;-60
2023/06/12 01:23:39;;;;;;;10.02;2.90;;;19.00;99.90;;;;;;5052795;28;20045;-60
2023/06/12 01:26:34;;;;;;;8.13;2.60;;;19.00;99.90;;;;;;5053126;28;20067;-60
2023/06/12 01:29:21;;;;;;;5.63;2.45;;;19.00;99.90;;;;;;5035244;28;20526;-60
2023/06/12 01:31:56;;;;;;;7.15;2.35;;;18.90;99.90;;;;;;5039096;28;20533;-60
2023/06/12 01:34:28;;;;;;;10.80;2.53;;;18.90;99.90;;;;;;5053020;28;20055;-60
2023/06/12 01:37:05;;;;;;;5.43;2.33;;;18.90;99.90;;;;;;5053003;28;20036;-60
2023/06/12 01:39:40;;;;;;;7.22;2.63;;;18.80;99.90;;;;;;5052694;28;20394;-60
2023/06/12 01:42:07;;;;;;;6.05;2.30;;;18.80;99.90;;;;;;5034946;28;20039;-60
2023/06/12 01:44:33;;;;;;;5.35;2.85;;;18.80;99.90;;;;;;5052674;28;20033;-60
2023/06/12 01:46:59;;;;;;;5.47;2.42;;;18.70;99.90;;;;;;5052415;28;20526;-60
2023/06/12 01:49:25;;;;;;;7.15;2.47;;;18.70;99.90;;;;;;5052651;28;20120;-60
2023/06/12 01:51:50;;;;;;;9.05;3.17;;;18.60;99.90;;;;;;5052497;28;20471;-59
2023/06/12 01:54:20;;;;;;;7.45;3.15;;;18.60;99.90;;;;;;5052484;28;20037;-60
2023/06/12 01:56:45;;;;;;;7.30;2.80;;;18.50;99.90;;;;;;5052483;28;20029;-60
2023/06/12 01:59:11;;;;;;;4.90;2.45;;;18.50;99.90;;;;;;5055591;28;20494;-60
2023/06/12 02:01:38;;;;;;;12.57;3.05;;;18.50;99.90;;;;;;5072359;28;20036;-60
2023/06/12 02:04:04;;;;;;;6.60;2.45;;;18.50;99.90;;;;;;5054506;28;20055;-60
2023/06/12 02:06:30;;;;;;;6.80;2.65;;;18.50;99.90;;;;;;5072234;28;20028;-61
2023/06/12 02:08:55;;;;;;;7.05;2.40;;;18.40;99.90;;;;;;5070606;28;20383;-60
2023/06/12 02:11:21;;;;;;;11.95;3.42;;;18.40;99.90;;;;;;5054686;28;20044;-60
2023/06/12 02:13:47;;;;;;;4.95;2.65;;;18.30;99.90;;;;;;5054186;28;20050;-60
2023/06/12 02:16:16;;;;;;;11.45;2.92;;;18.30;99.90;;;;;;5072297;28;20037;-60
2023/06/12 02:18:41;;;;;;;8.77;3.17;;;18.30;99.90;;;;;;5071979;28;20037;-60
2023/06/12 02:21:07;;;;;;;11.45;2.63;;;18.20;99.90;;;;;;5072170;28;20094;-60
2023/06/12 02:23:33;;;;;;;7.18;2.47;;;18.10;99.90;;;;;;5072259;28;20836;-60
2023/06/12 02:25:58;;;;;;;5.63;2.65;;;18.10;99.90;;;;;;5071869;28;20037;-60
2023/06/12 02:28:24;;;;;;;8.98;3.20;;;18.00;99.90;;;;;;5071927;28;20386;-60
2023/06/12 02:30:50;;;;;;;10.57;2.85;;;18.00;99.90;;;;;;5071645;28;20064;-60
2023/06/12 02:33:15;;;;;;;6.97;3.08;;;17.80;99.90;;;;;;5071244;28;20044;-60
2023/06/12 02:35:42;;;;;;;6.18;3.13;;;17.90;99.90;;;;;;5071437;28;20040;-60
2023/06/12 02:38:08;;;;;;;8.00;2.97;;;17.90;99.90;;;;;;5040877;28;20059;-60
2023/06/12 02:40:33;;;;;;;11.02;3.72;;;17.80;99.90;;;;;;5071712;28;20037;-59
2023/06/12 02:42:59;;;;;;;4.20;2.60;;;17.80;99.90;;;;;;5071945;28;20029;-60
2023/06/12 02:45:25;;;;;;;8.90;2.60;;;17.80;99.90;;;;;;5071885;28;20041;-60
2023/06/12 02:47:51;;;;;;;5.15;2.67;;;17.80;99.90;;;;;;5053854;28;20105;-60
2023/06/12 02:50:17;;;;;;;6.20;2.75;;;17.80;99.90;;;;;;5071827;28;20428;-60
2023/06/12 02:52:43;;;;;;;9.13;3.17;;;17.80;99.90;;;;;;5053440;28;20040;-59
2023/06/12 02:55:09;;;;;;;5.60;3.13;;;17.80;99.90;;;;;;5069884;28;20036;-60
2023/06/12 02:57:35;;;;;;;7.70;4.07;;;17.70;99.90;;;;;;5051854;28;20032;-60
2023/06/12 03:00:01;;;;;;;8.65;3.10;;;17.70;99.90;;;;;;5051406;28;20044;-60
2023/06/12 03:02:27;;;;;;;7.60;3.05;;;17.70;99.90;;;;;;5064522;28;20044;-60
2023/06/12 03:04:54;;;;;;;9.02;2.80;;;17.60;99.90;;;;;;5053462;28;20467;-60
2023/06/12 03:07:19;;;;;;;4.55;2.70;;;17.60;99.90;;;;;;5071658;28;20112;-60
2023/06/12 03:09:45;;;;;;;5.35;2.40;;;17.70;99.90;;;;;;5071934;28;20143;-60
2023/06/12 03:12:11;;;;;;;9.02;3.28;;;17.60;99.90;;;;;;5071952;28;20450;-61
2023/06/12 03:14:38;;;;;;;6.22;3.22;;;17.60;99.90;;;;;;5071485;28;20032;-60
2023/06/12 03:17:07;;;;;;;8.88;2.95;;;17.50;99.90;;;;;;5071487;28;20540;-60
2023/06/12 03:19:32;;;;;;;;;;;17.50;99.90;;;;;;5053926;28;20091;-59
2023/06/12 03:21:58;;;;;;;8.38;3.22;;;17.40;99.90;;;;;;5071288;28;19963;-59
2023/06/12 03:24:29;;;;;;;12.25;2.88;;;17.50;99.90;;;;;;5071754;28;20039;-60
2023/06/12 03:26:55;;;;;;;8.25;2.67;;;17.40;99.90;;;;;;5071528;28;20097;-60
2023/06/12 03:29:20;;;;;;;7.53;3.00;;;17.40;99.90;;;;;;5053487;28;20139;-60
2023/06/12 03:31:46;;;;;;;5.13;3.00;;;17.40;99.90;;;;;;5070992;28;20418;-60
2023/06/12 03:34:12;;;;;;;8.98;3.13;;;17.40;99.90;;;;;;5071328;28;20055;-60
2023/06/12 03:36:38;;;;;;;10.57;3.58;;;17.50;99.90;;;;;;5071104;28;20036;-60
2023/06/12 03:39:04;;;;;;;9.38;2.90;;;17.40;99.90;;;;;;5071290;28;20039;-60
2023/06/12 03:41:32;;;;;;;6.20;3.38;;;17.40;99.90;;;;;;5071221;28;20036;-60
2023/06/12 03:43:58;;;;;;;12.13;3.55;;;17.40;99.90;;;;;;5071013;28;20478;-60
2023/06/12 03:46:24;;;;;;;6.78;3.15;;;17.40;99.90;;;;;;5074432;28;20119;-60
2023/06/12 03:48:50;;;;;;;5.40;3.33;;;17.40;99.90;;;;;;5074738;28;20624;-60
2023/06/12 03:51:16;;;;;;;9.30;3.17;;;17.40;99.90;;;;;;5066165;28;20037;-59
2023/06/12 03:53:41;;;;;;;7.97;3.00;;;17.40;99.90;;;;;;5069640;28;20398;-60
2023/06/12 03:56:07;;;;;;;8.48;3.50;;;17.50;99.90;;;;;;5065111;28;20040;-60
2023/06/12 03:58:33;;;;;;;8.60;3.30;;;17.50;99.90;;;;;;5054798;28;20048;-59
2023/06/12 04:00:59;;;;;;;6.35;3.22;;;17.40;99.90;;;;;;5054586;28;20048;-60
2023/06/12 04:03:25;;;;;;;11.30;3.63;;;17.50;99.90;;;;;;5066806;28;20440;-60
2023/06/12 04:05:51;;;;;;;7.85;3.15;;;17.40;99.90;;;;;;5074476;28;20062;-60
2023/06/12 04:08:17;;;;;;;8.18;2.88;;;17.50;99.90;;;;;;5074281;28;20491;-59
2023/06/12 04:10:44;;;;;;;13.60;3.67;;;17.50;99.90;;;;;;5074354;28;20040;-60
2023/06/12 04:13:10;;;;;;;7.45;3.35;;;17.40;99.90;;;;;;5074277;28;20493;-60
2023/06/12 04:15:36;;;;;;;10.80;3.28;;;17.50;99.90;;;;;;5074363;28;20055;-60
2023/06/12 04:18:04;;;;;;;8.60;3.92;;;17.50;99.90;;;;;;5056899;28;20041;-60
2023/06/12 04:20:32;;;;;;;6.85;3.80;;;17.60;99.90;;;;;;5074358;28;20080;-59
2023/06/12 04:22:58;;;;;;;4.80;3.07;;;17.60;99.90;;;;;;5074161;28;20040;-60
2023/06/12 04:25:27;;;;;;;9.93;3.13;;;17.60;99.90;;;;;;5074269;28;20051;-60
2023/06/12 04:27:53;;;;;;;7.07;3.40;;;17.60;99.90;;;;;;5074178;28;20032;-60
2023/06/12 04:30:21;;;;;;;8.32;3.08;;;17.70;99.90;;;;;;5073958;28;20063;-60
2023/06/12 04:32:47;;;;;;;9.50;3.70;;;17.70;99.90;;;;;;5073983;28;20042;-60
2023/06/12 04:35:16;;;;;;;8.15;2.92;;;17.80;99.90;;;;;;5074301;28;20111;-60
2023/06/12 04:37:42;;;;;;;11.35;4.05;;;17.90;99.90;;;;;;5089640;28;20040;-59
2023/06/12 04:40:11;;;;;;;9.18;3.28;;;17.90;99.90;;;;;;5089625;28;20398;-60
2023/06/12 04:42:37;;;;;;;9.40;4.25;;;18.00;99.90;;;;;;5056168;28;20076;-60
2023/06/12 04:45:04;;;;;;;6.57;3.35;;;18.00;99.90;;;;;;5073755;28;20029;-60
2023/06/12 04:47:30;;;;;;;9.50;4.00;;;18.00;99.90;;;;;;5073837;28;20043;-60
2023/06/12 04:49:57;;;;;;;7.40;3.72;;;18.10;99.90;;;;;;5073971;28;20394;-60
2023/06/12 04:52:24;;;;;;;7.65;3.50;;;18.20;99.90;;;;;;5073911;28;20051;-60
2023/06/12 04:54:52;;;;;;;6.57;3.90;;;18.30;99.90;;;;;;5055770;28;20052;-61
2023/06/12 04:57:18;;;;;;;8.30;3.60;;;18.30;99.90;;;;;;5053187;28;20391;-60
2023/06/12 04:59:45;;;;;;;12.35;4.07;;;18.40;99.90;;;;;;5053794;28;20087;-60
2023/06/12 05:02:11;;;;;;;12.63;3.58;;;18.50;99.90;;;;;;5053580;28;20052;-60
2023/06/12 05:04:38;;;;;;;13.18;4.63;;;18.50;99.90;;;;;;5053747;28;20043;-61
2023/06/12 05:07:14;;;;;;;8.10;3.50;;;18.50;99.90;;;;;;5053394;28;20405;-60
2023/06/12 05:09:46;;;;;;;9.80;4.80;;;18.50;99.90;;;;;;5035519;28;20047;-60
2023/06/12 05:12:12;;;;;;;20.77;3.75;;;18.60;99.90;;;;;;5053209;28;20052;-60
2023/06/12 05:14:39;;;;;;;11.73;4.20;;;18.60;99.90;;;;;;5053326;28;20118;-60
2023/06/12 05:17:05;;;;;;;7.68;4.05;;;18.70;99.90;;;;;;5053326;28;20041;-59
2023/06/12 05:19:31;;;;;;;10.80;4.18;;;18.80;99.90;;;;;;5053423;28;20045;-60
2023/06/12 05:21:57;;;;;;;10.63;4.38;;;18.90;99.90;;;;;;5053364;28;20047;-61
2023/06/12 05:24:22;;;;;;;10.15;3.50;;;19.00;99.90;;;;;;5052935;28;20467;-60
2023/06/12 05:26:48;;;;;;;12.65;3.67;;;19.10;99.90;;;;;;5053363;28;20039;-60
2023/06/12 05:29:13;;;;;;;11.23;4.18;;;19.20;99.90;;;;;;5053135;28;20094;-60
2023/06/12 05:31:39;;;;;;;13.55;4.28;;;19.30;99.90;;;;;;5052848;28;20053;-60
2023/06/12 05:34:05;;;;;;;8.32;3.88;;;19.40;99.90;;;;;;5053328;28;20076;-60
2023/06/12 05:36:30;;;;;;;7.85;4.40;;;19.40;99.90;;;;;;5052946;28;20108;-60
2023/06/12 05:38:56;;;;;;;7.28;4.20;;;19.50;99.90;;;;;;5052762;28;20044;-60
2023/06/12 05:41:22;;;;;;;10.82;3.80;;;19.70;99.90;;;;;;5052809;28;20087;-60
2023/06/12 05:43:48;;;;;;;13.63;3.83;;;19.70;99.90;;;;;;5052819;28;20116;-60
2023/06/12 05:46:13;;;;;;;10.43;4.32;;;19.80;99.90;;;;;;5052451;28;20178;-60
2023/06/12 05:48:39;;;;;;;12.00;4.10;;;19.80;99.90;;;;;;5053119;28;20045;-60
2023/06/12 05:51:07;;;;;;;9.85;4.28;;;19.80;99.90;;;;;;5053287;28;20115;-59
2023/06/12 05:53:33;;;;;;;12.07;3.75;;;19.90;99.90;;;;;;5088446;28;20054;-60
2023/06/12 05:56:00;;;;;;;8.05;3.80;;;20.10;99.90;;;;;;5063787;28;20540;-61
2023/06/12 05:58:26;;;;;;;9.80;4.03;;;20.20;99.90;;;;;;5055572;28;20506;-60
2023/06/12 06:00:53;;;;;;;5.32;3.63;;;20.40;99.90;;;;;;5045233;28;20071;-60
2023/06/12 06:03:19;;;;;;;6.80;4.28;;;20.50;99.90;;;;;;5034066;28;20476;-60
2023/06/12 06:05:48;;;;;;;13.77;4.25;;;20.60;99.90;;;;;;5072496;28;20036;-60
2023/06/12 06:08:14;;;;;;;;;;;20.70;99.90;;;;;;5072456;28;20063;-61
2023/06/12 06:10:40;;;;;;;9.70;4.07;;;20.90;99.90;;;;;;5049867;28;19960;-60
2023/06/12 06:13:06;;;;;;;13.60;4.38;;;21.10;99.90;;;;;;5065090;28;20067;-60
2023/06/12 06:15:32;;;;;;;12.23;4.10;;;21.20;99.90;;;;;;5072194;28;20047;-61
2023/06/12 06:17:58;;;;;;;12.98;4.28;;;21.30;99.90;;;;;;5072266;28;20402;-60
2023/06/12 06:20:23;;;;;;;10.27;4.85;;;21.30;99.90;;;;;;5071828;28;20037;-61
2023/06/12 06:22:50;;;;;;;6.82;4.25;;;21.50;99.90;;;;;;5072133;28;20093;-60
2023/06/12 06:25:17;;;;;;;11.10;4.03;;;21.60;99.90;;;;;;5087448;28;20563;-60
2023/06/12 06:27:42;;;;;;;10.05;3.95;;;21.80;99.90;;;;;;5072149;28;20032;-61
2023/06/12 06:30:08;;;;;;;13.13;3.70;;;21.90;99.90;;;;;;5071760;28;20483;-61
2023/06/12 06:32:34;;;;;;;9.20;4.05;;;22.10;99.90;;;;;;5086717;28;20047;-60
2023/06/12 06:35:00;;;;;;;8.93;4.68;;;22.40;99.90;;;;;;5071979;28;20037;-60
2023/06/12 06:37:25;;;;;;;13.27;4.07;;;22.50;99.90;;;;;;5071626;28;20036;-60
2023/06/12 06:39:51;;;;;;;6.88;4.65;;;22.50;99.90;;;;;;5071662;28;20395;-60
2023/06/12 06:42:16;;;;;;;8.88;4.05;;;22.60;99.90;;;;;;5072006;28;20040;-61
2023/06/12 06:44:42;;;;;;;9.57;4.18;;;22.60;99.90;;;;;;5071814;28;20036;-60
2023/06/12 06:47:10;;;;;;;10.65;4.05;;;22.80;99.90;;;;;;5071876;28;20097;-60
2023/06/12 06:49:37;;;;;;;8.38;3.70;;;22.90;99.90;;;;;;5086942;28;20107;-61
2023/06/12 06:52:06;;;;;;;8.02;4.68;;;22.90;99.90;;;;;;5071584;28;20120;-60
2023/06/12 06:54:32;;;;;;;7.03;4.05;;;23.20;99.90;;;;;;5071513;28;20036;-60
2023/06/12 06:57:00;;;;;;;7.22;3.92;;;23.30;99.90;;;;;;5054709;28;20479;-60
2023/06/12 06:59:25;;;;;;;8.38;4.43;;;23.60;99.90;;;;;;5051652;28;20041;-60
2023/06/12 07:01:51;;;;;;;10.65;3.72;;;23.80;99.90;;;;;;5051679;28;20553;-60
2023/06/12 07:04:17;;;;;;;8.40;3.95;;;24.00;99.90;;;;;;5034353;28;20048;-60
2023/06/12 07:06:42;;;;;;;9.15;4.28;;;24.30;99.90;;;;;;5051681;28;20450;-60
2023/06/12 07:09:08;;;;;;;14.52;4.53;;;24.50;99.90;;;;;;5034433;28;20160;-61
2023/06/12 07:11:34;;;;;;;11.73;5.13;;;24.60;99.90;;;;;;5052485;28;20072;-60
2023/06/12 07:14:00;;;;;;;17.77;4.63;;;24.90;99.90;;;;;;5051469;28;20109;-61
2023/06/12 07:16:26;;;;;;;10.20;3.95;;;24.80;99.90;;;;;;5051669;28;20108;-61
2023/06/12 07:18:52;;;;;;;9.40;4.20;;;25.10;99.90;;;;;;5051540;28;20528;-61
2023/06/12 07:21:18;;;;;;;9.80;4.43;;;25.40;99.90;;;;;;5055336;28;20116;-60
2023/06/12 07:23:44;;;;;;;10.48;3.80;;;25.70;99.90;;;;;;5032574;28;20037;-60
2023/06/12 07:26:10;;;;;;;15.45;4.70;;;25.80;99.90;;;;;;5036016;28;20041;-61
2023/06/12 07:28:35;;;;;;;11.68;3.83;;;26.20;99.90;;;;;;5055684;28;20040;-60
2023/06/12 07:31:02;;;;;;;9.82;3.50;;;26.40;99.90;;;;;;5055413;28;20482;-60
2023/06/12 07:33:27;;;;;;;9.45;4.25;;;26.70;99.90;;;;;;5055304;28;20072;-60
2023/06/12 07:35:53;;;;;;;22.75;4.65;;;27.10;99.90;;;;;;5055365;28;20075;-61
2023/06/12 07:38:19;;;;;;;13.98;4.18;;;27.30;99.10;;;;;;5055399;28;20161;-61
2023/06/12 07:40:45;;;;;;;9.27;3.90;;;27.60;99.20;;;;;;5031625;28;20069;-60
2023/06/12 07:43:11;;;;;;;7.50;3.60;;;27.80;99.10;;;;;;5054504;28;20399;-60
2023/06/12 07:45:37;;;;;;;8.48;3.53;;;27.90;99.20;;;;;;5042909;28;20384;-61
2023/06/12 07:48:02;;;;;;;11.60;3.80;;;28.10;98.20;;;;;;5065549;28;20037;-61
2023/06/12 07:50:28;;;;;;;10.68;3.63;;;28.00;98.20;;;;;;5075155;28;20127;-61
2023/06/12 07:52:54;;;;;;;10.63;4.03;;;28.60;97.80;;;;;;5075447;28;20041;-61
2023/06/12 07:55:20;;;;;;;6.53;3.55;;;28.50;96.60;;;;;;5073117;28;20113;-61
2023/06/12 07:57:47;;;;;;;7.53;3.58;;;28.90;97.60;;;;;;5077877;28;20513;-61
2023/06/12 08:00:13;;;;;;;9.32;4.00;;;29.20;97.20;;;;;;5076730;28;20090;-63
2023/06/12 08:02:40;;;;;;;8.80;3.53;;;28.90;96.70;;;;;;5062391;28;20079;-63
2023/06/12 08:05:07;;;;;;;9.35;3.70;;;29.40;97.10;;;;;;5056025;28;20043;-63
2023/06/12 08:07:33;;;;;;;11.50;4.70;;;29.90;96.30;;;;;;5056423;28;20033;-63
2023/06/12 08:09:59;;;;;;;9.23;3.55;;;29.60;95.70;;;;;;5055354;28;20545;-63
2023/06/12 08:12:25;;;;;;;12.68;4.00;;;29.90;96.40;;;;;;5055437;28;20108;-64
2023/06/12 08:14:51;;;;;;;18.27;3.83;;;30.20;96.40;;;;;;5055859;28;20075;-63
2023/06/12 08:17:17;;;;;;;6.32;3.72;;;30.10;95.80;;;;;;5055708;28;20037;-63
2023/06/12 08:19:43;;;;;;;8.15;3.70;;;30.10;95.60;;;;;;5038121;28;20047;-63
2023/06/12 08:22:09;;;;;;;9.43;3.72;;;30.30;95.30;;;;;;5055677;28;20120;-63
2023/06/12 08:24:41;;;;;;;7.72;4.18;;;30.60;95.80;;;;;;5055690;28;20484;-64
2023/06/12 08:27:06;;;;;;;6.07;4.00;;;31.00;95.90;;;;;;5054785;28;20414;-64
2023/06/12 08:29:34;;;;;;;10.32;3.63;;;30.80;95.10;;;;;;5037286;28;20033;-64
2023/06/12 08:32:00;;;;;;;11.25;4.18;;;31.20;95.70;;;;;;5053422;28;20060;-64
2023/06/12 08:34:26;;;;;;;6.60;3.63;;;31.70;94.80;;;;;;5051596;28;20045;-64
2023/06/12 08:36:55;;;;;;;5.22;3.65;;;32.10;94.60;;;;;;5054985;28;20137;-64
2023/06/12 08:39:21;;;;;;;8.20;3.70;;;32.00;93.70;;;;;;5046348;28;20051;-64
2023/06/12 08:42:07;;;;;;;8.38;3.58;;;31.40;94.20;;;;;;5075112;28;20045;-64
2023/06/12 08:44:33;;;;;;;8.13;3.95;;;31.90;93.90;;;;;;5075272;28;20068;-64
2023/06/12 08:47:01;;;;;;;8.23;4.28;;;32.00;93.90;;;;;;5074262;28;20093;-65
2023/06/12 08:49:28;;;;;;;7.53;3.63;;;32.20;94.30;;;;;;5074578;28;20032;-65
2023/06/12 08:51:53;;;;;;;11.32;4.45;;;32.30;93.80;;;;;;5066555;28;20041;-64
2023/06/12 08:54:19;;;;;;;8.13;3.75;;;32.40;93.60;;;;;;5045463;28;20039;-64
2023/06/12 08:56:46;;;;;;;5.13;3.67;;;32.30;93.80;;;;;;5049202;28;20044;-65
2023/06/12 08:59:12;;;;;;;6.43;3.88;;;33.00;93.40;;;;;;5051160;28;20045;-65
2023/06/12 09:01:39;;;;;;;7.43;4.00;;;33.30;93.30;;;;;;5051815;28;20782;-65
2023/06/12 09:04:16;;;;;;;9.57;3.67;;;33.10;92.70;;;;;;5053524;28;20040;-64
2023/06/12 09:06:43;;;;;;;8.60;3.80;;;33.30;92.50;;;;;;5026858;28;20399;-64
2023/06/12 09:09:09;;;;;;;8.05;3.40;;;33.80;92.40;;;;;;5048281;28;20032;-62
2023/06/12 09:11:36;;;;;;;13.77;4.22;;;34.10;92.10;;;;;;5053396;28;20479;-62
2023/06/12 09:14:02;;;;;;;9.63;3.55;;;33.90;91.40;;;;;;5053053;28;20048;-62
2023/06/12 09:16:28;;;;;;;8.55;3.40;;;34.00;92.00;;;;;;5053268;28;20107;-61
2023/06/12 09:18:56;;;;;;;6.70;3.50;;;34.30;91.70;;;;;;5052985;28;20033;-62
2023/06/12 09:21:22;;;;;;;;;;;34.00;91.10;;;;;;5030434;28;20048;-62
2023/06/12 09:23:56;;;;;;;5.63;3.60;;;34.30;91.00;;;;;;5053325;28;19917;-62
2023/06/12 09:26:22;;;;;;;10.95;3.80;;;34.60;90.40;;;;;;5049487;28;20048;-62
2023/06/12 09:28:52;;;;;;;6.22;4.13;;;34.70;90.90;;;;;;5052376;28;20041;-62
2023/06/12 09:31:18;;;;;;;5.88;3.70;;;34.60;91.00;;;;;;5041628;28;20136;-65
2023/06/12 09:33:44;;;;;;;9.40;4.05;;;34.70;90.30;;;;;;5053203;28;20107;-65
2023/06/12 09:36:12;;;;;;;6.82;3.80;;;34.30;89.10;;;;;;5045836;28;20090;-66
2023/06/12 09:38:38;;;;;;;;;;;34.10;89.50;;;;;;5036147;28;20368;-65
2023/06/12 09:41:07;;;;;;;9.48;3.67;;;34.00;88.70;;;;;;5059573;28;19977;-61
2023/06/12 09:43:33;;;;;;;4.90;3.80;;;34.20;90.60;;;;;;5053136;28;20352;-61
2023/06/12 09:46:02;;;;;;;9.52;4.40;;;33.80;89.00;;;;;;5034541;28;20041;-62
2023/06/12 09:48:38;;;;;;;7.00;3.50;;;34.30;90.00;;;;;;5052757;28;20483;-61
2023/06/12 09:51:09;;;;;;;6.95;3.90;;;34.40;90.60;;;;;;5052975;28;20112;-61
2023/06/12 09:53:37;;;;;;;7.93;4.25;;;34.40;90.00;;;;;;5052792;28;20120;-62
2023/06/12 09:56:08;;;;;;;9.15;3.65;;;34.50;89.90;;;;;;5033176;28;20045;-61
2023/06/12 09:58:36;;;;;;;7.28;3.65;;;34.60;90.20;;;;;;5052536;28;20048;-62
2023/06/12 10:01:05;;;;;;;5.55;3.40;;;34.70;90.20;;;;;;5065530;28;20047;-61
2023/06/12 10:03:35;;;;;;;7.78;3.88;;;35.00;89.90;;;;;;5047303;28;20037;-62
2023/06/12 10:06:03;;;;;;;7.05;4.13;;;34.60;89.00;;;;;;5052543;28;20079;-61
2023/06/12 10:08:30;;;;;;;11.80;3.97;;;35.00;88.80;;;;;;5043105;28;20118;-61
2023/06/12 10:10:56;;;;;;;6.23;3.50;;;35.10;89.40;;;;;;5052824;28;20328;-62
2023/06/12 10:13:24;;;;;;;5.20;3.90;;;35.30;89.40;;;;;;5052560;28;20372;-62
2023/06/12 10:15:51;;;;;;;11.90;4.00;;;35.50;88.80;;;;;;5066344;28;20049;-62
2023/06/12 10:18:17;;;;;;;8.05;4.05;;;35.30;88.00;;;;;;5060335;28;20048;-62
2023/06/12 10:20:45;;;;;;;6.85;3.45;;;35.30;89.40;;;;;;5033595;28;20056;-61
2023/06/12 10:23:12;;;;;;;5.60;3.75;;;34.90;88.60;;;;;;5025445;28;20096;-62
2023/06/12 10:25:38;;;;;;;5.10;3.55;;;35.30;88.80;;;;;;5030225;28;20089;-62
2023/06/12 10:28:06;;;;;;;7.32;3.60;;;35.40;88.90;;;;;;5026345;28;20045;-63
2023/06/12 10:30:31;;;;;;;5.28;3.90;;;35.60;87.70;;;;;;5042828;28;20232;-62
2023/06/12 10:33:08;;;;;;;5.68;3.47;;;35.50;86.30;;;;;;5051617;28;20115;-63
2023/06/12 10:35:35;;;;;;;5.63;3.92;;;35.50;84.70;;;;;;5051365;28;20126;-62
2023/06/12 10:38:02;;;;;;;7.95;3.88;;;35.70;85.60;;;;;;5045260;28;20045;-62
2023/06/12 10:40:29;;;;;;;5.30;3.58;;;35.80;87.40;;;;;;5044219;28;20083;-62
2023/06/12 10:42:55;;;;;;;7.03;3.63;;;35.90;87.30;;;;;;5050455;28;20116;-62
2023/06/12 10:45:24;;;;;;;6.03;3.55;;;35.60;86.80;;;;;;5039906;28;20467;-62
2023/06/12 10:48:05;;;;;;;8.40;3.70;;;35.80;87.10;;;;;;5044537;28;20364;-62
2023/06/12 10:50:35;;;;;;;8.68;3.80;;;35.70;86.60;;;;;;5052579;28;20120;-62
2023/06/12 10:53:03;;;;;;;6.28;3.78;;;35.70;87.00;;;;;;5053733;28;20479;-62
2023/06/12 10:55:28;;;;;;;8.13;4.30;;;36.10;86.70;;;;;;5058985;28;20037;-63
2023/06/12 10:57:59;;;;;;;9.23;3.95;;;35.80;86.60;;;;;;5051514;28;20462;-62
2023/06/12 11:00:33;;;;;;;7.18;4.35;;;35.90;86.90;;;;;;5050732;28;20047;-62
2023/06/12 11:03:11;;;;;;;4.88;4.10;;;36.10;85.70;;;;;;5031863;28;20494;-62
2023/06/12 11:05:37;;;;;;;;;;;36.20;84.70;;;;;;5049522;28;20048;-62
2023/06/12 11:08:07;;;;;;;6.10;4.15;;;36.30;86.80;;;;;;5058889;28;20402;-62
2023/06/12 11:10:34;;;;;;;6.22;4.10;;;36.70;85.40;;;;;;5051295;28;20068;-62
2023/06/12 11:13:01;;;;;;;5.50;4.07;;;36.60;86.80;;;;;;5049754;28;20037;-62
2023/06/12 11:15:26;;;;;;;7.35;4.22;;;37.20;87.50;;;;;;5049871;28;20049;-62
2023/06/12 11:17:53;;;;;;;8.80;4.70;;;36.80;85.50;;;;;;5050024;28;20033;-62
2023/06/12 11:20:20;;;;;;;7.50;4.05;;;36.90;84.30;;;;;;5050066;28;20045;-63
2023/06/12 11:22:47;;;;;;;6.22;4.18;;;36.80;86.40;;;;;;5050532;28;20037;-62
2023/06/12 11:25:13;;;;;;;7.18;4.40;;;36.80;86.30;;;;;;5051143;28;20144;-62
2023/06/12 11:27:38;;;;;;;6.20;4.63;;;37.00;85.70;;;;;;5051344;28;20037;-63
2023/06/12 11:30:14;;;;;;;7.40;4.55;;;36.70;84.90;;;;;;5032908;28;20142;-62
2023/06/12 11:32:43;;;;;;;6.05;4.70;;;36.80;85.10;;;;;;5051037;28;20079;-62
2023/06/12 11:35:10;;;;;;;7.50;4.93;;;36.70;81.80;;;;;;5051347;28;20036;-62
2023/06/12 11:37:40;;;;;;;5.45;4.88;;;36.70;83.20;;;;;;5035629;28;20057;-62
2023/06/12 11:40:11;;;;;;;8.43;4.20;;;36.60;82.50;;;;;;5051036;28;20523;-63
2023/06/12 11:42:42;;;;;;;7.07;4.13;;;37.10;80.70;;;;;;5050902;28;20045;-62
2023/06/12 11:45:15;;;;;;;5.10;3.95;;;37.10;81.90;;;;;;5033445;28;20051;-62
2023/06/12 11:47:43;;;;;;;6.13;4.10;;;37.20;82.00;;;;;;5050648;28;20045;-62
2023/06/12 11:50:12;;;;;;;6.35;4.18;;;37.50;79.90;;;;;;5050995;28;20434;-62
2023/06/12 11:52:42;;;;;;;5.55;3.83;;;37.20;81.90;;;;;;5050978;28;20045;-62
2023/06/12 11:55:10;;;;;;;4.03;3.63;;;37.40;78.90;;;;;;5050857;28;20116;-62
2023/06/12 11:57:36;;;;;;;6.35;4.57;;;37.60;77.90;;;;;;5051039;28;20041;-62
2023/06/12 12:00:22;;;;;;;5.35;4.22;;;37.60;80.00;;;;;;5050726;28;20041;-62
2023/06/12 12:02:51;;;;;;;5.95;4.40;;;37.50;77.40;;;;;;5050879;28;20499;-63
2023/06/12 12:05:20;;;;;;;5.45;4.45;;;37.10;77.70;;;;;;5040636;28;20040;-62
2023/06/12 12:07:55;;;;;;;4.65;4.03;;;36.70;78.70;;;;;;5074543;28;20048;-62
2023/06/12 12:10:22;;;;;;;6.40;4.65;;;36.70;78.10;;;;;;5048907;28;20488;-62
2023/06/12 12:12:49;;;;;;;6.35;4.20;;;36.50;79.60;;;;;;5054015;28;20045;-62
2023/06/12 12:15:16;;;;;;;6.57;4.35;;;36.70;80.90;;;;;;5059111;28;20425;-63
2023/06/12 12:17:42;;;;;;;;;;;36.70;81.60;;;;;;5075017;28;20048;-62
2023/06/12 12:20:18;;;;;;;5.70;4.00;;;36.10;80.90;;;;;;5074331;28;20015;-62
2023/06/12 12:22:50;;;;;;;7.45;4.65;;;36.40;80.70;;;;;;5074455;28;20043;-63
2023/06/12 12:25:27;;;;;;;9.95;4.05;;;36.40;82.00;;;;;;5089655;28;20474;-62
2023/06/12 12:27:54;;;;;;;6.95;4.47;;;36.10;80.80;;;;;;5036427;28;20037;-62
2023/06/12 12:30:24;;;;;;;9.55;5.07;;;36.10;80.40;;;;;;5071890;28;20039;-62
2023/06/12 12:32:54;;;;;;;4.70;4.22;;;36.30;79.90;;;;;;5074396;28;20067;-63
2023/06/12 12:35:21;;;;;;;6.43;4.53;;;36.00;80.70;;;;;;5056769;28;20063;-63
2023/06/12 12:37:49;;;;;;;6.43;4.57;;;35.70;81.50;;;;;;5086761;28;20169;-64
2023/06/12 12:40:15;;;;;;;7.97;5.70;;;35.80;82.30;;;;;;5074190;28;20044;-62
2023/06/12 12:42:45;;;;;;;7.38;5.30;;;34.90;81.10;;;;;;5061107;28;20120;-62
2023/06/12 12:45:12;;;;;;;6.20;4.85;;;34.70;82.40;;;;;;5068025;28;20112;-62
2023/06/12 12:47:44;;;;;;;8.32;5.50;;;35.20;81.80;;;;;;5056083;28;20043;-62